Terminal Aerodrome Forecast
Issued by NWS

Home | Current Version | Previous Version | Text Only | Print | Product List | Glossary On
Versions: 1 2 3 4 5 6 7 8 9 10 11 12 13 14 15 16
000
FTUS41 KBTV 291129
TAFSLK
TAF
KSLK 291129Z 2912/3012 VRB03KT P6SM SCT025 BKN200
     FM291400 22007KT P6SM FEW035 BKN200
     FM300000 VRB03KT P6SM BKN070 OVC100
     FM300600 VRB03KT P6SM OVC090=

USA.gov is the U.S. government's official web portal to all federal, state and local government web resources and services.